Terminal Aerodrome Forecast
Issued by NWS

Home | Current Version | Previous Version | Text Only | Print | Product List | Glossary On
Versions: 1 2 3 4 5 6 7 8 9 10 11 12 13 14 15 16
000
FTUS42 TJSJ 060500
TAFJSJ
TAF
TJSJ 060539Z 0606/0706 09006KT P6SM VCSH FEW025 SCT070
     FM061300 09016KT P6SM VCSH FEW025 SCT060
     FM061600 07017G24KT P6SM FEW025 SCT045
     FM062200 09007KT P6SM SCT030=

USA.gov is the U.S. government's official web portal to all federal, state and local government web resources and services.